createdAt,value
2019-03-21T00:02:12.941Z,72.53
2019-03-21T00:04:43.723Z,70.20
2019-03-21T00:07:13.774Z,71.30
2019-03-21T00:10:14.354Z,72.83
2019-03-21T00:12:44.334Z,70.30
2019-03-21T00:15:30.150Z,67.83
2019-03-21T00:18:09.333Z,69.47
2019-03-21T00:20:39.348Z,70.60
2019-03-21T00:23:09.294Z,69.33
2019-03-21T00:25:39.318Z,74.27
2019-03-21T00:28:09.323Z,61.87
2019-03-21T00:30:39.333Z,68.57
2019-03-21T00:33:09.294Z,66.13
2019-03-21T00:35:39.410Z,73.50
2019-03-21T00:38:09.818Z,70.40
2019-03-21T00:40:44.007Z,64.40
2019-03-21T00:43:13.950Z,66.57
2019-03-21T00:45:44.533Z,68.97
2019-03-21T00:48:16.219Z,66.10
2019-03-21T00:50:46.262Z,64.63
2019-03-21T00:53:16.310Z,61.90
2019-03-21T00:55:47.284Z,64.23
2019-03-21T00:58:17.283Z,75.53
2019-03-21T01:00:50.695Z,66.43
2019-03-21T01:03:20.775Z,66.07
2019-03-21T01:05:50.777Z,65.37
2019-03-21T01:08:20.793Z,68.43
2019-03-21T01:10:51.414Z,62.57
2019-03-21T01:13:21.553Z,69.33
2019-03-21T01:15:51.572Z,56.80
2019-03-21T01:18:21.573Z,63.73
2019-03-21T01:20:51.562Z,64.73
2019-03-21T01:23:21.849Z,62.80
2019-03-21T01:25:53.043Z,63.50
2019-03-21T01:28:23.015Z,70.03
2019-03-21T01:30:53.074Z,56.50
2019-03-21T01:33:23.517Z,69.43
2019-03-21T01:35:53.550Z,65.40
2019-03-21T01:38:23.540Z,63.47
2019-03-21T01:40:53.732Z,65.63
2019-03-21T01:43:23.699Z,67.50
2019-03-21T01:45:53.678Z,62.43
2019-03-21T01:48:23.705Z,59.87
2019-03-21T01:50:54.027Z,63.13
2019-03-21T01:53:24.002Z,65.87
2019-03-21T01:55:54.019Z,60.33
2019-03-21T01:58:24.022Z,61.87
2019-03-21T02:00:54.099Z,65.53
2019-03-21T02:03:24.174Z,62.60
2019-03-21T02:05:54.433Z,64.47
2019-03-21T02:08:24.794Z,66.30
2019-03-21T02:10:54.864Z,64.70
2019-03-21T02:13:24.862Z,69.63
2019-03-21T02:15:54.901Z,64.50
2019-03-21T02:18:24.881Z,56.93
2019-03-21T02:20:55.284Z,59.83
2019-03-21T02:23:25.874Z,63.47
2019-03-21T02:25:55.878Z,60.43
2019-03-21T02:28:25.897Z,61.27
2019-03-21T02:30:56.255Z,63.50
2019-03-21T02:33:28.984Z,62.13
2019-03-21T02:35:59.430Z,64.70
2019-03-21T02:38:29.463Z,63.90
2019-03-21T02:41:00.790Z,65.83
2019-03-21T02:43:30.897Z,65.83
2019-03-21T02:46:00.857Z,71.07
2019-03-21T02:48:31.414Z,64.60
2019-03-21T02:51:01.423Z,68.23
2019-03-21T02:53:31.401Z,63.63
2019-03-21T02:56:01.466Z,67.00
2019-03-21T02:58:31.835Z,55.20
2019-03-21T03:01:01.899Z,60.60
2019-03-21T03:03:32.688Z,58.50
2019-03-21T03:06:02.657Z,58.77
2019-03-21T03:08:32.693Z,62.80
2019-03-21T03:11:03.503Z,59.57
2019-03-21T03:24:46.135Z,69.80
2019-03-21T03:27:16.455Z,67.43
2019-03-21T03:29:46.446Z,69.83
2019-03-21T03:32:16.945Z,67.03
2019-03-21T03:34:46.973Z,71.10
2019-03-21T03:37:17.162Z,66.03
2019-03-21T03:39:47.113Z,63.47
2019-03-21T03:42:17.525Z,75.07
2019-03-21T03:44:47.555Z,69.20
2019-03-21T03:47:17.955Z,78.63
2019-03-21T03:49:48.293Z,72.13
2019-03-21T03:52:18.243Z,69.57
2019-03-21T03:54:48.304Z,73.10
2019-03-21T03:57:18.335Z,69.80
2019-03-21T03:59:48.315Z,72.67
2019-03-21T04:02:18.251Z,78.20
2019-03-21T04:04:48.287Z,83.43
2019-03-21T04:07:18.293Z,70.90
2019-03-21T04:09:48.390Z,69.60
2019-03-21T04:12:18.498Z,70.90
2019-03-21T04:14:48.811Z,76.37
2019-03-21T04:17:18.816Z,77.23
2019-03-21T04:19:48.763Z,71.27
2019-03-21T04:22:18.726Z,77.60
2019-03-21T04:24:48.691Z,75.63
2019-03-21T04:27:18.731Z,70.20
2019-03-21T04:29:48.713Z,76.73
2019-03-21T04:32:18.746Z,72.17
2019-03-21T04:34:48.714Z,72.20
2019-03-21T04:37:18.770Z,76.30
2019-03-21T04:39:48.784Z,74.10
2019-03-21T04:42:18.782Z,71.80
2019-03-21T04:44:49.175Z,73.93
2019-03-21T04:47:19.224Z,72.57
2019-03-21T04:49:50.142Z,77.27
2019-03-21T04:52:20.165Z,82.33
2019-03-21T04:54:50.153Z,75.80
2019-03-21T04:57:20.136Z,75.27
2019-03-21T04:59:50.112Z,80.53
2019-03-21T05:02:20.098Z,75.13
2019-03-21T05:04:50.114Z,86.43
2019-03-21T05:07:20.094Z,71.20
2019-03-21T05:09:50.078Z,70.80
2019-03-21T05:12:20.131Z,80.40
2019-03-21T05:14:50.495Z,80.47
2019-03-21T05:17:20.500Z,79.23
2019-03-21T05:19:50.506Z,99.97
2019-03-21T05:22:20.604Z,81.60
2019-03-21T05:24:50.593Z,80.93
2019-03-21T05:27:20.899Z,84.37
2019-03-21T05:29:51.173Z,82.80
2019-03-21T05:32:21.192Z,94.07
2019-03-21T05:34:51.320Z,81.50
2019-03-21T05:37:21.299Z,89.00
2019-03-21T05:39:51.386Z,88.13
2019-03-21T05:42:22.992Z,92.47
2019-03-21T05:44:53.000Z,92.87
2019-03-21T05:47:22.977Z,85.07
2019-03-21T05:49:52.984Z,89.33
2019-03-21T05:52:23.497Z,91.33
2019-03-21T05:54:53.947Z,87.20
2019-03-21T05:57:24.396Z,84.07
2019-03-21T05:59:54.826Z,84.87
2019-03-21T06:02:24.874Z,74.00
2019-03-21T06:04:54.896Z,86.07
2019-03-21T06:07:48.462Z,89.83
2019-03-21T06:10:18.870Z,73.07
2019-03-21T06:12:49.115Z,82.00
2019-03-21T06:15:22.496Z,79.57
2019-03-21T06:18:05.318Z,70.40
2019-03-21T06:20:54.870Z,79.93
2019-03-21T06:24:05.046Z,72.17
2019-03-21T06:26:51.825Z,74.33
2019-03-21T06:29:21.788Z,68.40
2019-03-21T06:31:52.222Z,68.17
2019-03-21T06:34:22.322Z,68.80
2019-03-21T06:36:52.499Z,72.73
2019-03-21T06:39:22.882Z,77.93
2019-03-21T06:41:53.002Z,68.63
2019-03-21T06:44:23.278Z,62.40
2019-03-21T06:46:53.314Z,70.23
2019-03-21T06:49:23.355Z,67.97
2019-03-21T06:51:53.649Z,70.43
2019-03-21T06:54:24.603Z,70.17
2019-03-21T06:56:54.606Z,67.13
2019-03-21T06:59:24.986Z,64.20
2019-03-21T07:01:56.331Z,61.60
2019-03-21T07:04:26.408Z,63.97
2019-03-21T07:07:07.241Z,67.10
2019-03-21T07:09:29.214Z,66.83
2019-03-21T07:12:00.058Z,69.37
2019-03-21T07:14:30.053Z,63.83
2019-03-21T07:17:00.895Z,65.23
2019-03-21T07:19:31.046Z,68.43
2019-03-21T07:22:00.966Z,61.40
2019-03-21T07:24:31.047Z,65.63
2019-03-21T07:27:03.089Z,64.67
2019-03-21T07:29:33.068Z,64.03
2019-03-21T07:32:03.099Z,63.43
2019-03-21T07:34:33.096Z,62.70
2019-03-21T07:37:03.112Z,65.17
2019-03-21T07:39:33.520Z,65.20
2019-03-21T07:42:03.676Z,69.00
2019-03-21T07:44:33.738Z,67.57
2019-03-21T07:47:12.651Z,65.90
2019-03-21T07:49:35.826Z,64.73
2019-03-21T07:52:06.138Z,60.90
2019-03-21T07:54:36.106Z,59.37
2019-03-21T07:57:06.085Z,61.07
2019-03-21T07:59:36.250Z,60.90
2019-03-21T08:02:06.325Z,62.23
2019-03-21T08:04:36.702Z,63.40
2019-03-21T08:07:06.730Z,57.30
2019-03-21T08:09:36.727Z,57.63
2019-03-21T08:12:06.761Z,58.00
2019-03-21T08:14:36.751Z,55.43
2019-03-21T08:17:06.722Z,56.40
2019-03-21T08:19:36.704Z,53.97
2019-03-21T08:22:06.706Z,55.43
2019-03-21T08:24:36.721Z,55.30
2019-03-21T08:27:06.811Z,61.13
2019-03-21T08:29:36.758Z,57.53
2019-03-21T08:32:07.179Z,58.97
2019-03-21T08:34:37.101Z,56.40
2019-03-21T08:37:07.142Z,63.60
2019-03-21T08:39:37.170Z,59.40
2019-03-21T08:42:07.242Z,62.00
2019-03-21T08:44:37.260Z,58.43
2019-03-21T08:47:08.551Z,56.40
2019-03-21T08:49:38.558Z,56.30
2019-03-21T08:52:08.948Z,52.67
2019-03-21T08:54:39.450Z,49.30
2019-03-21T08:57:09.480Z,48.60
2019-03-21T08:59:39.462Z,56.57
2019-03-21T09:02:09.473Z,47.13
2019-03-21T09:04:39.956Z,48.60
2019-03-21T09:07:13.249Z,47.97
2019-03-21T09:09:43.837Z,49.97
2019-03-21T09:12:13.878Z,60.13
2019-03-21T09:14:44.227Z,48.27
2019-03-21T09:17:14.201Z,51.80
2019-03-21T09:19:44.215Z,51.93
2019-03-21T09:22:15.994Z,44.50
2019-03-21T09:24:45.880Z,47.67
2019-03-21T09:27:15.875Z,45.90
2019-03-21T09:29:53.430Z,41.13
2019-03-21T09:32:17.661Z,47.60
2019-03-21T09:34:47.818Z,45.40
2019-03-21T09:37:17.954Z,50.50
2019-03-21T09:39:48.013Z,49.97
2019-03-21T09:42:18.288Z,43.13
2019-03-21T09:44:48.342Z,46.03
2019-03-21T09:47:18.282Z,53.23
2019-03-21T09:49:48.300Z,52.37
2019-03-21T09:52:18.272Z,49.37
2019-03-21T09:54:48.330Z,50.50
2019-03-21T09:57:18.297Z,50.37
2019-03-21T09:59:48.586Z,52.50
2019-03-21T10:02:18.599Z,54.67
2019-03-21T10:04:48.736Z,51.07
2019-03-21T10:07:19.170Z,48.67
2019-03-21T10:09:49.130Z,49.00
2019-03-21T10:12:19.038Z,46.73
2019-03-21T10:14:49.368Z,53.17
2019-03-21T10:17:19.722Z,48.70
2019-03-21T10:19:50.088Z,54.50
2019-03-21T10:22:20.077Z,45.53
2019-03-21T10:24:50.105Z,41.87
2019-03-21T10:27:20.174Z,40.70
2019-03-21T10:29:50.143Z,42.13
2019-03-21T10:32:20.150Z,36.60
2019-03-21T10:34:50.189Z,39.60
2019-03-21T10:37:21.048Z,38.43
2019-03-21T10:39:51.040Z,35.67
2019-03-21T10:42:21.020Z,34.63
2019-03-21T10:44:51.043Z,37.97
2019-03-21T10:47:21.686Z,35.50
2019-03-21T10:49:51.766Z,37.47
2019-03-21T10:52:21.711Z,35.60
2019-03-21T10:54:51.750Z,36.10
2019-03-21T10:57:21.746Z,35.03
2019-03-21T10:59:51.754Z,36.70
2019-03-21T11:02:21.670Z,36.57
2019-03-21T11:04:51.617Z,35.83
2019-03-21T11:07:19.475Z,39.00
2019-03-21T11:09:49.489Z,34.93
2019-03-21T11:12:19.425Z,35.77
2019-03-21T11:14:49.436Z,40.77
2019-03-21T11:17:19.434Z,33.10
2019-03-21T11:19:49.907Z,26.63
2019-03-21T11:22:20.217Z,26.63
2019-03-21T11:24:50.348Z,27.53
2019-03-21T11:27:20.770Z,28.90
2019-03-21T11:29:50.769Z,26.30
2019-03-21T11:32:20.752Z,26.57
2019-03-21T11:34:50.705Z,22.33
2019-03-21T11:37:20.692Z,20.23
2019-03-21T11:39:51.015Z,20.70
2019-03-21T11:42:21.148Z,20.30
2019-03-21T11:44:51.179Z,18.93
2019-03-21T11:47:21.511Z,19.30
2019-03-21T11:49:51.589Z,17.57
2019-03-21T11:52:21.634Z,18.30
2019-03-21T11:54:51.588Z,15.80
2019-03-21T11:57:21.996Z,17.40
2019-03-21T11:59:52.509Z,17.43
2019-03-21T12:02:27.237Z,17.80
2019-03-21T12:04:54.182Z,19.90
2019-03-21T12:07:24.247Z,19.33
2019-03-21T12:09:54.692Z,19.20
2019-03-21T12:12:25.138Z,20.83
2019-03-21T12:14:55.538Z,21.87
2019-03-21T12:17:25.812Z,22.07
2019-03-21T12:19:55.901Z,20.30
2019-03-21T12:22:30.378Z,19.10
2019-03-21T12:24:57.986Z,19.63
2019-03-21T12:27:28.441Z,18.93
2019-03-21T12:29:58.486Z,19.07
2019-03-21T12:32:28.446Z,18.47
2019-03-21T12:34:58.468Z,19.93
2019-03-21T12:37:28.930Z,21.97
2019-03-21T12:39:58.997Z,19.17
2019-03-21T12:42:29.043Z,20.20
2019-03-21T12:44:59.024Z,21.20
2019-03-21T12:47:31.369Z,21.10
2019-03-21T12:50:00.999Z,19.63
2019-03-21T12:55:02.635Z,23.30
2019-03-21T12:57:32.610Z,22.33
2019-03-21T13:00:02.663Z,21.10
2019-03-21T13:02:32.666Z,22.10
2019-03-21T13:05:02.699Z,21.63
2019-03-21T13:07:33.122Z,20.60
2019-03-21T13:10:03.146Z,23.13
2019-03-21T13:12:33.097Z,21.13
2019-03-21T13:15:03.132Z,20.93
2019-03-21T13:17:33.868Z,22.43
2019-03-21T13:20:04.444Z,20.27
2019-03-21T13:22:34.424Z,21.93
2019-03-21T13:25:04.720Z,21.10
2019-03-21T13:27:34.654Z,22.90
2019-03-21T13:30:05.322Z,21.43
2019-03-21T13:32:35.408Z,22.50
2019-03-21T13:35:06.437Z,21.43
2019-03-21T13:37:36.783Z,22.70
2019-03-21T13:40:07.362Z,21.30
2019-03-21T13:42:37.342Z,21.00
2019-03-21T13:45:07.952Z,25.40
2019-03-21T13:47:37.939Z,23.03
2019-03-21T13:50:08.088Z,21.80
2019-03-21T13:52:38.222Z,24.40
2019-03-21T13:55:08.290Z,23.33
2019-03-21T13:57:38.290Z,22.37
2019-03-21T14:00:09.539Z,28.10
2019-03-21T14:02:39.998Z,24.33
2019-03-21T14:05:10.283Z,25.77
2019-03-21T14:07:40.638Z,24.40
2019-03-21T14:10:11.494Z,24.37
2019-03-21T14:12:41.808Z,23.40
2019-03-21T14:15:13.636Z,23.50
2019-03-21T14:17:43.682Z,23.53
2019-03-21T14:20:14.248Z,23.13
2019-03-21T14:22:44.283Z,22.47
2019-03-21T14:25:14.484Z,23.40
2019-03-21T14:27:44.541Z,24.67
2019-03-21T14:30:16.294Z,23.43
2019-03-21T14:32:46.698Z,22.03
2019-03-21T14:35:16.910Z,22.43
2019-03-21T14:37:46.997Z,23.27
2019-03-21T14:40:17.740Z,23.57
2019-03-21T14:42:48.221Z,22.20
2019-03-21T14:45:18.554Z,22.43
2019-03-21T14:47:48.549Z,22.73
2019-03-21T14:50:18.630Z,25.50
2019-03-21T14:52:49.029Z,26.27
2019-03-21T14:55:19.091Z,22.77
2019-03-21T14:57:49.086Z,24.97
2019-03-21T15:00:19.384Z,24.60
2019-03-21T15:02:49.694Z,23.63
2019-03-21T15:05:20.076Z,22.03
2019-03-21T15:07:50.368Z,22.17
2019-03-21T15:10:20.517Z,24.57
2019-03-21T15:12:50.540Z,22.73
2019-03-21T15:15:20.978Z,22.60
2019-03-21T15:17:51.814Z,22.77
2019-03-21T15:20:22.287Z,23.13
2019-03-21T15:22:52.274Z,22.33
2019-03-21T15:25:22.283Z,24.07
2019-03-21T15:27:52.225Z,25.40
2019-03-21T15:30:22.475Z,23.77
2019-03-21T15:32:53.171Z,23.73
2019-03-21T15:35:23.158Z,23.63
2019-03-21T15:37:54.098Z,23.63
2019-03-21T15:40:24.107Z,25.23
2019-03-21T15:42:56.886Z,23.63
2019-03-21T15:45:26.238Z,23.27
2019-03-21T15:47:56.343Z,23.57
2019-03-21T15:50:31.146Z,24.10
2019-03-21T15:53:01.540Z,24.13
2019-03-21T15:55:32.286Z,24.70
2019-03-21T15:58:03.089Z,23.80
2019-03-21T16:00:37.989Z,21.80
2019-03-21T16:03:08.693Z,23.53
2019-03-21T16:05:39.139Z,28.90
2019-03-21T16:08:09.666Z,27.13
2019-03-21T16:10:39.625Z,23.73
2019-03-21T16:13:09.648Z,24.27
2019-03-21T16:15:39.934Z,24.57
2019-03-21T16:18:09.924Z,22.00
2019-03-21T16:20:39.922Z,25.47
2019-03-21T16:23:09.976Z,25.60
2019-03-21T16:25:40.272Z,24.57
2019-03-21T16:28:10.704Z,23.73
2019-03-21T16:30:40.730Z,24.60
2019-03-21T16:33:10.795Z,23.87
2019-03-21T16:35:40.837Z,22.17
2019-03-21T16:38:10.801Z,22.10
2019-03-21T16:40:40.955Z,21.83
2019-03-21T16:43:10.958Z,21.73
2019-03-21T16:45:40.966Z,21.00
2019-03-21T16:48:11.326Z,24.23
2019-03-21T16:50:41.658Z,23.83
2019-03-21T16:53:11.975Z,23.07
2019-03-21T16:55:42.354Z,22.43
2019-03-21T16:58:12.810Z,27.67
2019-03-21T17:00:43.191Z,23.17
2019-03-21T17:03:13.164Z,25.33
2019-03-21T17:05:43.541Z,25.77
2019-03-21T17:08:13.975Z,24.63
2019-03-21T17:10:44.044Z,22.97
2019-03-21T17:13:14.108Z,23.77
2019-03-21T17:15:44.108Z,21.63
2019-03-21T17:18:14.098Z,20.20
2019-03-21T17:20:44.067Z,25.77
2019-03-21T17:23:14.452Z,24.03
2019-03-21T17:25:44.897Z,21.57
2019-03-21T17:28:14.917Z,24.67
2019-03-21T17:30:44.912Z,25.60
2019-03-21T17:33:14.912Z,24.77
2019-03-21T17:35:45.560Z,26.67
2019-03-21T17:38:15.966Z,24.30
2019-03-21T17:40:45.995Z,23.83
2019-03-21T17:43:16.009Z,24.57
2019-03-21T17:45:46.037Z,25.63
2019-03-21T17:48:16.065Z,22.00
2019-03-21T17:50:46.391Z,28.10
2019-03-21T17:53:17.084Z,23.80
2019-03-21T17:55:47.388Z,22.67
2019-03-21T17:58:17.830Z,23.83
2019-03-21T18:00:47.828Z,27.17
2019-03-21T18:03:18.186Z,22.23
2019-03-21T18:05:48.162Z,26.93
2019-03-21T18:08:18.516Z,25.80
2019-03-21T18:10:48.488Z,26.40
2019-03-21T18:13:18.468Z,27.57
2019-03-21T18:15:48.590Z,31.73
2019-03-21T18:18:18.651Z,27.37
2019-03-21T18:20:49.113Z,29.00
2019-03-21T18:23:19.411Z,29.40
2019-03-21T18:25:49.415Z,37.03
2019-03-21T18:28:19.826Z,38.57
2019-03-21T18:30:49.750Z,30.40
2019-03-21T18:33:19.810Z,31.20
2019-03-21T18:35:50.106Z,34.13
2019-03-21T18:38:20.489Z,36.80
2019-03-21T18:40:50.867Z,32.90
2019-03-21T18:43:21.893Z,33.07
2019-03-21T18:45:51.912Z,31.17
2019-03-21T18:48:21.948Z,35.20
2019-03-21T18:50:52.478Z,31.70
2019-03-21T18:53:22.970Z,32.33
2019-03-21T18:55:53.336Z,31.97
2019-03-21T18:58:23.501Z,29.87
2019-03-21T19:00:53.902Z,29.43
2019-03-21T19:03:23.886Z,32.23
2019-03-21T19:05:54.078Z,37.23
2019-03-21T19:08:24.066Z,36.53
2019-03-21T19:10:54.150Z,52.93
2019-03-21T19:13:24.164Z,57.57
2019-03-21T19:15:54.194Z,57.87
2019-03-21T19:18:24.177Z,74.13
2019-03-21T19:20:54.166Z,69.50
2019-03-21T19:23:24.155Z,62.33
2019-03-21T19:25:54.082Z,66.60
2019-03-21T19:28:24.126Z,62.03
2019-03-21T19:30:54.143Z,67.30
2019-03-21T19:33:24.203Z,64.10
2019-03-21T19:35:54.788Z,59.50
2019-03-21T19:38:24.822Z,60.07
2019-03-21T19:40:54.784Z,63.77
2019-03-21T19:43:24.930Z,63.27
2019-03-21T19:45:54.934Z,65.33
2019-03-21T19:48:24.931Z,55.40
2019-03-21T19:50:55.284Z,65.83
2019-03-21T19:53:25.580Z,66.80
2019-03-21T19:56:07.669Z,61.93
2019-03-21T19:58:27.165Z,66.53
2019-03-21T20:00:57.165Z,63.20
2019-03-21T20:03:27.171Z,61.57
2019-03-21T20:06:00.525Z,54.20
2019-03-21T20:08:28.934Z,64.60
2019-03-21T20:10:59.250Z,64.60
2019-03-21T20:13:29.317Z,65.70
2019-03-21T20:15:59.327Z,66.50
2019-03-21T20:18:29.351Z,72.00
2019-03-21T20:20:59.305Z,67.80
2019-03-21T20:23:29.946Z,78.83
2019-03-21T20:25:59.934Z,69.30
2019-03-21T20:28:29.921Z,78.63
2019-03-21T20:30:59.870Z,77.33
2019-03-21T20:33:29.890Z,76.90
2019-03-21T20:35:59.874Z,78.73
2019-03-21T20:38:29.903Z,71.47
2019-03-21T20:40:59.903Z,79.00
2019-03-21T20:43:29.890Z,77.57
2019-03-21T20:45:59.861Z,75.80
2019-03-21T20:48:31.356Z,77.47
2019-03-21T20:51:01.736Z,69.77
2019-03-21T20:53:31.738Z,90.70
2019-03-21T20:56:01.724Z,76.37
2019-03-21T20:58:32.127Z,87.57
2019-03-21T21:01:02.162Z,90.50
2019-03-21T21:03:32.150Z,96.03
2019-03-21T21:06:02.182Z,86.63
2019-03-21T21:08:32.542Z,90.03
2019-03-21T21:11:02.523Z,89.07
2019-03-21T21:13:32.544Z,91.17
2019-03-21T21:16:02.566Z,89.20
2019-03-21T21:18:32.729Z,103.37
2019-03-21T21:21:02.758Z,96.03
2019-03-21T21:23:32.709Z,97.10
2019-03-21T21:26:05.688Z,115.80
2019-03-21T21:28:34.876Z,114.23
2019-03-21T21:31:04.978Z,117.53
2019-03-21T21:33:35.502Z,107.57
2019-03-21T21:36:05.584Z,108.50
2019-03-21T21:38:36.092Z,118.87
2019-03-21T21:41:06.103Z,130.90
2019-03-21T21:43:36.427Z,162.77
2019-03-21T21:46:06.689Z,164.33
2019-03-21T21:48:36.709Z,154.00
2019-03-21T21:51:06.637Z,165.13
2019-03-21T21:53:36.707Z,169.13
2019-03-21T21:56:17.157Z,173.23
2019-03-21T21:58:38.704Z,179.90
2019-03-21T22:01:08.760Z,153.00
2019-03-21T22:03:40.195Z,153.70
2019-03-21T22:06:10.170Z,168.10
2019-03-21T22:08:40.161Z,168.47
2019-03-21T22:11:10.618Z,154.60
2019-03-21T22:13:41.379Z,154.97
2019-03-21T22:16:11.339Z,153.90
2019-03-21T22:18:41.761Z,150.43
2019-03-21T22:21:11.733Z,144.63
2019-03-21T22:23:42.102Z,161.37
2019-03-21T22:26:12.314Z,153.30
2019-03-21T22:28:42.305Z,143.80
2019-03-21T22:31:12.297Z,141.07
2019-03-21T22:33:42.298Z,150.40
2019-03-21T22:36:12.444Z,138.47
2019-03-21T22:38:42.896Z,140.93
2019-03-21T22:41:12.894Z,137.70
2019-03-21T22:43:42.854Z,148.63
2019-03-21T22:46:12.849Z,142.13
2019-03-21T22:48:42.873Z,136.50
2019-03-21T22:51:12.891Z,132.00
2019-03-21T22:53:42.900Z,137.00
2019-03-21T22:56:12.894Z,135.37
2019-03-21T22:58:43.813Z,139.63
2019-03-21T23:01:14.440Z,150.80
2019-03-21T23:03:44.562Z,131.97
2019-03-21T23:06:14.555Z,158.83
2019-03-21T23:08:44.533Z,143.20
2019-03-21T23:11:14.528Z,152.97
2019-03-21T23:13:44.638Z,163.20
2019-03-21T23:16:14.590Z,151.37
2019-03-21T23:18:44.592Z,154.50
2019-03-21T23:21:14.644Z,162.67
2019-03-21T23:23:44.968Z,153.83
2019-03-21T23:26:14.965Z,157.37
2019-03-21T23:28:44.959Z,152.47
2019-03-21T23:31:14.959Z,139.67
2019-03-21T23:33:44.943Z,150.70
2019-03-21T23:36:15.414Z,164.03
2019-03-21T23:38:45.802Z,150.97
2019-03-21T23:41:15.791Z,145.83
2019-03-21T23:43:45.731Z,137.93
2019-03-21T23:46:15.721Z,161.20
2019-03-21T23:48:45.784Z,150.43
2019-03-21T23:51:15.741Z,154.43
2019-03-21T23:53:46.146Z,166.87
2019-03-21T23:56:16.453Z,149.87
2019-03-21T23:58:46.326Z,164.20
